sensor_id;sensor_type;location;lat;lon;timestamp;temperature;humidity
15386;DHT22;7791;47.246;9.648;2022-09-25T00:00:48;13.30;99.90
15386;DHT22;7791;47.246;9.648;2022-09-25T00:03:15;13.30;99.90
15386;DHT22;7791;47.246;9.648;2022-09-25T00:05:43;13.30;99.90
15386;DHT22;7791;47.246;9.648;2022-09-25T00:08:11;13.40;99.90
15386;DHT22;7791;47.246;9.648;2022-09-25T00:10:39;13.30;99.90
15386;DHT22;7791;47.246;9.648;2022-09-25T00:13:05;13.40;99.90
15386;DHT22;7791;47.246;9.648;2022-09-25T00:15:31;13.50;99.90
15386;DHT22;7791;47.246;9.648;2022-09-25T00:17:57;13.50;99.90
15386;DHT22;7791;47.246;9.648;2022-09-25T00:20:46;13.50;99.90
15386;DHT22;7791;47.246;9.648;2022-09-25T00:23:13;13.50;99.90
15386;DHT22;7791;47.246;9.648;2022-09-25T00:25:39;13.50;99.90
15386;DHT22;7791;47.246;9.648;2022-09-25T00:28:05;13.50;99.90
15386;DHT22;7791;47.246;9.648;2022-09-25T00:30:30;13.50;99.90
15386;DHT22;7791;47.246;9.648;2022-09-25T00:32:56;13.50;99.90
15386;DHT22;7791;47.246;9.648;2022-09-25T00:35:42;13.40;99.90
15386;DHT22;7791;47.246;9.648;2022-09-25T00:38:08;13.40;99.90
15386;DHT22;7791;47.246;9.648;2022-09-25T00:40:35;13.30;99.90
15386;DHT22;7791;47.246;9.648;2022-09-25T00:43:01;13.20;99.90
15386;DHT22;7791;47.246;9.648;2022-09-25T00:45:27;12.90;99.90
15386;DHT22;7791;47.246;9.648;2022-09-25T00:47:56;12.80;99.90
15386;DHT22;7791;47.246;9.648;2022-09-25T00:50:36;12.60;99.90
15386;DHT22;7791;47.246;9.648;2022-09-25T00:53:07;12.60;99.90
15386;DHT22;7791;47.246;9.648;2022-09-25T00:55:37;12.70;99.90
15386;DHT22;7791;47.246;9.648;2022-09-25T00:58:04;12.80;99.90
15386;DHT22;7791;47.246;9.648;2022-09-25T01:00:31;12.80;99.90
15386;DHT22;7791;47.246;9.648;2022-09-25T01:02:57;12.90;99.90
15386;DHT22;7791;47.246;9.648;2022-09-25T01:05:25;12.90;99.90
15386;DHT22;7791;47.246;9.648;2022-09-25T01:07:52;12.90;99.90
15386;DHT22;7791;47.246;9.648;2022-09-25T01:10:20;12.90;99.90
15386;DHT22;7791;47.246;9.648;2022-09-25T01:12:49;12.80;99.90
15386;DHT22;7791;47.246;9.648;2022-09-25T01:15:18;12.80;99.90
15386;DHT22;7791;47.246;9.648;2022-09-25T01:17:53;12.80;99.90
15386;DHT22;7791;47.246;9.648;2022-09-25T01:20:39;12.70;99.90
15386;DHT22;7791;47.246;9.648;2022-09-25T01:23:16;12.70;99.90
15386;DHT22;7791;47.246;9.648;2022-09-25T01:25:59;12.70;99.90
15386;DHT22;7791;47.246;9.648;2022-09-25T01:28:48;12.80;99.90
15386;DHT22;7791;47.246;9.648;2022-09-25T01:31:17;12.70;99.90
15386;DHT22;7791;47.246;9.648;2022-09-25T01:33:51;12.70;99.90
15386;DHT22;7791;47.246;9.648;2022-09-25T01:36:24;12.70;99.90
15386;DHT22;7791;47.246;9.648;2022-09-25T01:38:58;12.70;99.90
15386;DHT22;7791;47.246;9.648;2022-09-25T01:41:32;12.70;99.90
15386;DHT22;7791;47.246;9.648;2022-09-25T01:44:02;12.60;99.90
15386;DHT22;7791;47.246;9.648;2022-09-25T01:46:34;12.50;99.90
15386;DHT22;7791;47.246;9.648;2022-09-25T01:49:07;12.60;99.90
15386;DHT22;7791;47.246;9.648;2022-09-25T01:51:37;12.60;99.90
15386;DHT22;7791;47.246;9.648;2022-09-25T01:54:08;12.60;99.90
15386;DHT22;7791;47.246;9.648;2022-09-25T01:56:38;12.60;99.90
15386;DHT22;7791;47.246;9.648;2022-09-25T01:59:11;12.60;99.90
15386;DHT22;7791;47.246;9.648;2022-09-25T02:01:41;12.70;99.90
15386;DHT22;7791;47.246;9.648;2022-09-25T02:04:10;12.70;99.90
15386;DHT22;7791;47.246;9.648;2022-09-25T02:06:44;12.70;99.90
15386;DHT22;7791;47.246;9.648;2022-09-25T02:09:15;12.70;99.90
15386;DHT22;7791;47.246;9.648;2022-09-25T02:11:44;12.70;99.90
15386;DHT22;7791;47.246;9.648;2022-09-25T02:14:16;12.70;99.90
15386;DHT22;7791;47.246;9.648;2022-09-25T02:16:46;12.70;99.90
15386;DHT22;7791;47.246;9.648;2022-09-25T02:19:15;12.70;99.90
15386;DHT22;7791;47.246;9.648;2022-09-25T02:21:46;12.50;99.90
15386;DHT22;7791;47.246;9.648;2022-09-25T02:24:19;12.60;99.90
15386;DHT22;7791;47.246;9.648;2022-09-25T02:26:46;12.60;99.90
15386;DHT22;7791;47.246;9.648;2022-09-25T02:29:15;12.60;99.90
15386;DHT22;7791;47.246;9.648;2022-09-25T02:31:45;12.60;99.90
15386;DHT22;7791;47.246;9.648;2022-09-25T02:34:12;12.70;99.90
15386;DHT22;7791;47.246;9.648;2022-09-25T02:36:37;12.70;99.90
15386;DHT22;7791;47.246;9.648;2022-09-25T02:39:05;12.70;99.90
15386;DHT22;7791;47.246;9.648;2022-09-25T02:41:48;12.70;99.90
15386;DHT22;7791;47.246;9.648;2022-09-25T02:44:29;12.70;99.90
15386;DHT22;7791;47.246;9.648;2022-09-25T02:47:06;12.60;99.90
15386;DHT22;7791;47.246;9.648;2022-09-25T02:49:38;12.30;99.90
15386;DHT22;7791;47.246;9.648;2022-09-25T02:52:12;12.20;99.90
15386;DHT22;7791;47.246;9.648;2022-09-25T02:54:44;12.20;99.90
15386;DHT22;7791;47.246;9.648;2022-09-25T02:57:14;12.30;99.90
15386;DHT22;7791;47.246;9.648;2022-09-25T02:59:50;12.40;99.90
15386;DHT22;7791;47.246;9.648;2022-09-25T03:02:18;12.50;99.90
15386;DHT22;7791;47.246;9.648;2022-09-25T03:04:45;12.60;99.90
15386;DHT22;7791;47.246;9.648;2022-09-25T03:07:11;12.60;99.90
15386;DHT22;7791;47.246;9.648;2022-09-25T03:09:38;12.60;99.90
15386;DHT22;7791;47.246;9.648;2022-09-25T03:12:06;12.50;99.90
15386;DHT22;7791;47.246;9.648;2022-09-25T03:14:32;12.60;99.90
15386;DHT22;7791;47.246;9.648;2022-09-25T03:17:01;12.60;99.90
15386;DHT22;7791;47.246;9.648;2022-09-25T03:19:28;12.60;99.90
15386;DHT22;7791;47.246;9.648;2022-09-25T03:21:54;12.60;99.90
15386;DHT22;7791;47.246;9.648;2022-09-25T03:24:20;12.60;99.90
15386;DHT22;7791;47.246;9.648;2022-09-25T03:26:46;12.70;99.90
15386;DHT22;7791;47.246;9.648;2022-09-25T03:29:12;12.60;99.90
15386;DHT22;7791;47.246;9.648;2022-09-25T03:31:38;12.70;99.90
15386;DHT22;7791;47.246;9.648;2022-09-25T03:34:06;12.60;99.90
15386;DHT22;7791;47.246;9.648;2022-09-25T03:36:32;12.60;99.90
15386;DHT22;7791;47.246;9.648;2022-09-25T03:38:58;12.50;99.90
15386;DHT22;7791;47.246;9.648;2022-09-25T03:41:25;12.50;99.90
15386;DHT22;7791;47.246;9.648;2022-09-25T03:43:52;12.50;99.90
15386;DHT22;7791;47.246;9.648;2022-09-25T03:46:19;12.40;99.90
15386;DHT22;7791;47.246;9.648;2022-09-25T03:48:45;12.40;99.90
15386;DHT22;7791;47.246;9.648;2022-09-25T03:51:13;12.50;99.90
15386;DHT22;7791;47.246;9.648;2022-09-25T03:53:39;12.50;99.90
15386;DHT22;7791;47.246;9.648;2022-09-25T03:56:06;12.60;99.90
15386;DHT22;7791;47.246;9.648;2022-09-25T03:58:33;12.60;99.90
15386;DHT22;7791;47.246;9.648;2022-09-25T04:00:59;12.60;99.90
15386;DHT22;7791;47.246;9.648;2022-09-25T04:03:26;12.60;99.90
15386;DHT22;7791;47.246;9.648;2022-09-25T04:05:52;12.60;99.90
15386;DHT22;7791;47.246;9.648;2022-09-25T04:08:35;12.60;99.90
15386;DHT22;7791;47.246;9.648;2022-09-25T04:11:02;12.70;99.90
15386;DHT22;7791;47.246;9.648;2022-09-25T04:13:30;12.70;99.90
15386;DHT22;7791;47.246;9.648;2022-09-25T04:15:57;12.70;99.90
15386;DHT22;7791;47.246;9.648;2022-09-25T04:18:23;12.70;99.90
15386;DHT22;7791;47.246;9.648;2022-09-25T04:20:49;12.70;99.90
15386;DHT22;7791;47.246;9.648;2022-09-25T04:23:15;12.60;99.90
15386;DHT22;7791;47.246;9.648;2022-09-25T04:25:43;12.60;99.90
15386;DHT22;7791;47.246;9.648;2022-09-25T04:28:08;12.60;99.90
15386;DHT22;7791;47.246;9.648;2022-09-25T04:30:34;12.70;99.90
15386;DHT22;7791;47.246;9.648;2022-09-25T04:33:01;12.70;99.90
15386;DHT22;7791;47.246;9.648;2022-09-25T04:35:26;12.60;99.90
15386;DHT22;7791;47.246;9.648;2022-09-25T04:37:52;12.70;99.90
15386;DHT22;7791;47.246;9.648;2022-09-25T04:40:18;12.60;99.90
15386;DHT22;7791;47.246;9.648;2022-09-25T04:42:46;12.60;99.90
15386;DHT22;7791;47.246;9.648;2022-09-25T04:45:11;12.60;99.90
15386;DHT22;7791;47.246;9.648;2022-09-25T04:47:37;12.50;99.90
15386;DHT22;7791;47.246;9.648;2022-09-25T04:50:03;12.50;99.90
15386;DHT22;7791;47.246;9.648;2022-09-25T04:52:29;12.40;99.90
15386;DHT22;7791;47.246;9.648;2022-09-25T04:54:55;12.50;99.90
15386;DHT22;7791;47.246;9.648;2022-09-25T04:57:21;12.50;99.90
15386;DHT22;7791;47.246;9.648;2022-09-25T04:59:48;12.50;99.90
15386;DHT22;7791;47.246;9.648;2022-09-25T05:02:14;12.50;99.90
15386;DHT22;7791;47.246;9.648;2022-09-25T05:04:40;12.50;99.90
15386;DHT22;7791;47.246;9.648;2022-09-25T05:07:05;12.50;99.90
15386;DHT22;7791;47.246;9.648;2022-09-25T05:09:31;12.50;99.90
15386;DHT22;7791;47.246;9.648;2022-09-25T05:11:57;12.40;99.90
15386;DHT22;7791;47.246;9.648;2022-09-25T05:14:24;12.30;99.90
15386;DHT22;7791;47.246;9.648;2022-09-25T05:16:51;12.30;99.90
15386;DHT22;7791;47.246;9.648;2022-09-25T05:19:17;12.30;99.90
15386;DHT22;7791;47.246;9.648;2022-09-25T05:21:43;12.40;99.90
15386;DHT22;7791;47.246;9.648;2022-09-25T05:27:17;12.40;99.90
15386;DHT22;7791;47.246;9.648;2022-09-25T05:29:43;12.50;99.90
15386;DHT22;7791;47.246;9.648;2022-09-25T05:32:10;12.40;99.90
15386;DHT22;7791;47.246;9.648;2022-09-25T05:34:36;12.50;99.90
15386;DHT22;7791;47.246;9.648;2022-09-25T05:37:02;12.60;99.90
15386;DHT22;7791;47.246;9.648;2022-09-25T05:39:28;12.60;99.90
15386;DHT22;7791;47.246;9.648;2022-09-25T05:41:54;12.70;99.90
15386;DHT22;7791;47.246;9.648;2022-09-25T05:44:20;12.70;99.90
15386;DHT22;7791;47.246;9.648;2022-09-25T05:46:45;12.80;99.90
15386;DHT22;7791;47.246;9.648;2022-09-25T05:49:13;12.80;99.90
15386;DHT22;7791;47.246;9.648;2022-09-25T05:51:39;12.90;99.90
15386;DHT22;7791;47.246;9.648;2022-09-25T05:54:41;12.90;99.90
15386;DHT22;7791;47.246;9.648;2022-09-25T05:57:07;12.90;99.90
15386;DHT22;7791;47.246;9.648;2022-09-25T05:59:33;13.00;99.90
15386;DHT22;7791;47.246;9.648;2022-09-25T06:01:59;13.00;99.90
15386;DHT22;7791;47.246;9.648;2022-09-25T06:04:26;12.90;99.90
15386;DHT22;7791;47.246;9.648;2022-09-25T06:06:52;13.00;99.90
15386;DHT22;7791;47.246;9.648;2022-09-25T06:12:36;13.10;99.90
15386;DHT22;7791;47.246;9.648;2022-09-25T06:15:02;13.40;99.90
15386;DHT22;7791;47.246;9.648;2022-09-25T06:17:29;13.50;99.90
15386;DHT22;7791;47.246;9.648;2022-09-25T06:19:56;13.60;99.90
15386;DHT22;7791;47.246;9.648;2022-09-25T06:22:21;13.70;99.90
15386;DHT22;7791;47.246;9.648;2022-09-25T06:24:50;13.80;99.90
15386;DHT22;7791;47.246;9.648;2022-09-25T06:27:16;14.20;99.90
15386;DHT22;7791;47.246;9.648;2022-09-25T06:29:42;14.40;99.90
15386;DHT22;7791;47.246;9.648;2022-09-25T06:32:08;14.50;99.90
15386;DHT22;7791;47.246;9.648;2022-09-25T06:34:33;14.60;99.90
15386;DHT22;7791;47.246;9.648;2022-09-25T06:37:00;14.60;99.90
15386;DHT22;7791;47.246;9.648;2022-09-25T06:40:00;14.70;99.90
15386;DHT22;7791;47.246;9.648;2022-09-25T06:42:26;14.80;99.90
15386;DHT22;7791;47.246;9.648;2022-09-25T06:44:52;14.80;99.90
15386;DHT22;7791;47.246;9.648;2022-09-25T06:47:18;14.90;99.90
15386;DHT22;7791;47.246;9.648;2022-09-25T06:49:44;15.30;99.90
15386;DHT22;7791;47.246;9.648;2022-09-25T06:52:11;15.60;99.90
15386;DHT22;7791;47.246;9.648;2022-09-25T06:54:37;15.80;99.90
15386;DHT22;7791;47.246;9.648;2022-09-25T06:57:03;16.10;99.90
15386;DHT22;7791;47.246;9.648;2022-09-25T06:59:29;16.40;99.90
15386;DHT22;7791;47.246;9.648;2022-09-25T07:01:55;16.60;99.90
15386;DHT22;7791;47.246;9.648;2022-09-25T07:04:21;16.70;99.90
15386;DHT22;7791;47.246;9.648;2022-09-25T07:06:46;17.00;99.90
15386;DHT22;7791;47.246;9.648;2022-09-25T07:09:13;17.30;99.90
15386;DHT22;7791;47.246;9.648;2022-09-25T07:11:51;17.70;99.90
15386;DHT22;7791;47.246;9.648;2022-09-25T07:14:17;18.00;99.90
15386;DHT22;7791;47.246;9.648;2022-09-25T07:16:43;17.70;99.90
15386;DHT22;7791;47.246;9.648;2022-09-25T07:19:09;18.80;99.90
15386;DHT22;7791;47.246;9.648;2022-09-25T07:21:35;20.20;99.90
15386;DHT22;7791;47.246;9.648;2022-09-25T07:24:00;20.50;99.90
15386;DHT22;7791;47.246;9.648;2022-09-25T07:26:29;21.70;99.90
15386;DHT22;7791;47.246;9.648;2022-09-25T07:28:56;22.40;99.90
15386;DHT22;7791;47.246;9.648;2022-09-25T07:31:24;23.20;99.90
15386;DHT22;7791;47.246;9.648;2022-09-25T07:33:50;22.70;99.90
15386;DHT22;7791;47.246;9.648;2022-09-25T07:36:17;21.80;99.90
15386;DHT22;7791;47.246;9.648;2022-09-25T07:38:47;20.70;99.90
15386;DHT22;7791;47.246;9.648;2022-09-25T07:41:13;20.00;99.90
15386;DHT22;7791;47.246;9.648;2022-09-25T07:43:40;19.20;99.90
15386;DHT22;7791;47.246;9.648;2022-09-25T07:46:06;18.80;99.90
15386;DHT22;7791;47.246;9.648;2022-09-25T07:48:32;17.90;99.90
15386;DHT22;7791;47.246;9.648;2022-09-25T07:50:59;17.50;99.90
15386;DHT22;7791;47.246;9.648;2022-09-25T07:53:25;17.50;99.90
15386;DHT22;7791;47.246;9.648;2022-09-25T07:55:50;17.70;99.90
15386;DHT22;7791;47.246;9.648;2022-09-25T07:58:19;17.80;99.90
15386;DHT22;7791;47.246;9.648;2022-09-25T08:00:47;17.70;99.90
15386;DHT22;7791;47.246;9.648;2022-09-25T08:03:13;17.40;99.90
15386;DHT22;7791;47.246;9.648;2022-09-25T08:05:39;17.20;99.90
15386;DHT22;7791;47.246;9.648;2022-09-25T08:08:05;17.60;99.90
15386;DHT22;7791;47.246;9.648;2022-09-25T08:16:42;18.50;99.90
15386;DHT22;7791;47.246;9.648;2022-09-25T08:19:11;18.90;99.90
15386;DHT22;7791;47.246;9.648;2022-09-25T08:21:40;19.30;99.90
15386;DHT22;7791;47.246;9.648;2022-09-25T08:24:08;19.50;99.90
15386;DHT22;7791;47.246;9.648;2022-09-25T08:29:38;18.10;99.90
15386;DHT22;7791;47.246;9.648;2022-09-25T08:32:06;17.30;99.90
15386;DHT22;7791;47.246;9.648;2022-09-25T08:34:32;17.00;99.90
15386;DHT22;7791;47.246;9.648;2022-09-25T08:36:58;16.80;99.90
15386;DHT22;7791;47.246;9.648;2022-09-25T08:39:23;16.60;99.90
15386;DHT22;7791;47.246;9.648;2022-09-25T08:45:19;16.90;99.90
15386;DHT22;7791;47.246;9.648;2022-09-25T08:47:47;17.10;99.90
15386;DHT22;7791;47.246;9.648;2022-09-25T08:50:19;17.20;99.90
15386;DHT22;7791;47.246;9.648;2022-09-25T08:52:47;17.20;99.90
15386;DHT22;7791;47.246;9.648;2022-09-25T08:55:18;17.40;99.90
15386;DHT22;7791;47.246;9.648;2022-09-25T08:58:19;17.60;99.90
15386;DHT22;7791;47.246;9.648;2022-09-25T09:00:45;17.30;99.90
15386;DHT22;7791;47.246;9.648;2022-09-25T09:03:14;17.20;99.90
15386;DHT22;7791;47.246;9.648;2022-09-25T09:05:41;17.20;99.90
15386;DHT22;7791;47.246;9.648;2022-09-25T09:08:11;17.10;99.90
15386;DHT22;7791;47.246;9.648;2022-09-25T09:10:42;17.10;99.90
15386;DHT22;7791;47.246;9.648;2022-09-25T09:16:18;19.20;99.90
15386;DHT22;7791;47.246;9.648;2022-09-25T09:18:47;21.90;99.90
15386;DHT22;7791;47.246;9.648;2022-09-25T09:21:20;22.70;99.90
15386;DHT22;7791;47.246;9.648;2022-09-25T09:23:50;22.00;99.90
15386;DHT22;7791;47.246;9.648;2022-09-25T09:26:31;21.00;99.90
15386;DHT22;7791;47.246;9.648;2022-09-25T09:29:15;20.00;99.90
15386;DHT22;7791;47.246;9.648;2022-09-25T09:34:36;19.90;99.90
15386;DHT22;7791;47.246;9.648;2022-09-25T09:37:12;20.70;99.90
15386;DHT22;7791;47.246;9.648;2022-09-25T09:39:44;20.80;99.90
15386;DHT22;7791;47.246;9.648;2022-09-25T09:44:56;20.00;99.90
15386;DHT22;7791;47.246;9.648;2022-09-25T09:47:33;19.80;99.90
15386;DHT22;7791;47.246;9.648;2022-09-25T09:50:18;19.50;99.90
15386;DHT22;7791;47.246;9.648;2022-09-25T09:52:49;18.80;99.90
15386;DHT22;7791;47.246;9.648;2022-09-25T09:55:20;18.60;99.90
15386;DHT22;7791;47.246;9.648;2022-09-25T09:57:51;18.30;99.90
15386;DHT22;7791;47.246;9.648;2022-09-25T10:00:19;18.30;99.90
15386;DHT22;7791;47.246;9.648;2022-09-25T10:02:49;18.10;99.90
15386;DHT22;7791;47.246;9.648;2022-09-25T10:05:23;17.80;99.90
15386;DHT22;7791;47.246;9.648;2022-09-25T10:07:51;17.30;99.90
15386;DHT22;7791;47.246;9.648;2022-09-25T10:10:18;17.00;99.90
15386;DHT22;7791;47.246;9.648;2022-09-25T10:12:47;17.00;99.90
15386;DHT22;7791;47.246;9.648;2022-09-25T10:15:30;17.20;99.90
15386;DHT22;7791;47.246;9.648;2022-09-25T10:17:58;17.50;99.90
15386;DHT22;7791;47.246;9.648;2022-09-25T10:20:30;17.90;99.90
15386;DHT22;7791;47.246;9.648;2022-09-25T10:23:00;18.00;99.90
15386;DHT22;7791;47.246;9.648;2022-09-25T10:25:37;18.20;99.90
15386;DHT22;7791;47.246;9.648;2022-09-25T10:31:17;19.30;99.90
15386;DHT22;7791;47.246;9.648;2022-09-25T10:33:59;20.10;99.90
15386;DHT22;7791;47.246;9.648;2022-09-25T10:36:37;21.10;99.90
15386;DHT22;7791;47.246;9.648;2022-09-25T10:39:18;21.90;99.90
15386;DHT22;7791;47.246;9.648;2022-09-25T10:41:46;22.20;99.90
15386;DHT22;7791;47.246;9.648;2022-09-25T10:44:40;22.40;99.90
15386;DHT22;7791;47.246;9.648;2022-09-25T10:47:27;21.70;99.90
15386;DHT22;7791;47.246;9.648;2022-09-25T10:49:54;21.70;99.90
15386;DHT22;7791;47.246;9.648;2022-09-25T10:52:21;21.20;99.90
15386;DHT22;7791;47.246;9.648;2022-09-25T10:54:47;21.00;99.90
15386;DHT22;7791;47.246;9.648;2022-09-25T10:57:15;20.20;99.90
15386;DHT22;7791;47.246;9.648;2022-09-25T11:00:19;19.80;99.90
15386;DHT22;7791;47.246;9.648;2022-09-25T11:02:45;19.10;99.90
15386;DHT22;7791;47.246;9.648;2022-09-25T11:05:15;19.10;99.90
15386;DHT22;7791;47.246;9.648;2022-09-25T11:07:47;18.70;99.90
15386;DHT22;7791;47.246;9.648;2022-09-25T11:10:18;18.40;99.90
15386;DHT22;7791;47.246;9.648;2022-09-25T11:12:45;18.40;99.90
15386;DHT22;7791;47.246;9.648;2022-09-25T11:15:46;18.60;99.90
15386;DHT22;7791;47.246;9.648;2022-09-25T11:18:33;19.10;99.90
15386;DHT22;7791;47.246;9.648;2022-09-25T11:21:01;19.20;99.90
15386;DHT22;7791;47.246;9.648;2022-09-25T11:23:33;18.80;99.90
15386;DHT22;7791;47.246;9.648;2022-09-25T11:26:05;18.70;99.90
15386;DHT22;7791;47.246;9.648;2022-09-25T11:28:55;19.00;99.90
15386;DHT22;7791;47.246;9.648;2022-09-25T11:31:27;19.20;99.90
15386;DHT22;7791;47.246;9.648;2022-09-25T11:33:59;19.10;99.90
15386;DHT22;7791;47.246;9.648;2022-09-25T11:36:32;19.40;99.90
15386;DHT22;7791;47.246;9.648;2022-09-25T11:39:04;19.70;99.90
15386;DHT22;7791;47.246;9.648;2022-09-25T11:41:38;19.50;99.90
15386;DHT22;7791;47.246;9.648;2022-09-25T11:49:47;19.20;99.90
15386;DHT22;7791;47.246;9.648;2022-09-25T12:03:27;18.70;99.90
15386;DHT22;7791;47.246;9.648;2022-09-25T12:08:47;18.00;99.90
15386;DHT22;7791;47.246;9.648;2022-09-25T12:11:22;18.10;99.90
15386;DHT22;7791;47.246;9.648;2022-09-25T12:14:12;18.10;99.90
15386;DHT22;7791;47.246;9.648;2022-09-25T12:16:49;18.20;99.90
15386;DHT22;7791;47.246;9.648;2022-09-25T12:22:00;18.80;99.90
15386;DHT22;7791;47.246;9.648;2022-09-25T12:24:40;19.60;99.90
15386;DHT22;7791;47.246;9.648;2022-09-25T12:27:16;19.60;99.90
15386;DHT22;7791;47.246;9.648;2022-09-25T12:29:56;19.10;99.90
15386;DHT22;7791;47.246;9.648;2022-09-25T12:32:29;18.60;99.90
15386;DHT22;7791;47.246;9.648;2022-09-25T12:35:15;18.70;99.90
15386;DHT22;7791;47.246;9.648;2022-09-25T12:37:48;18.70;99.90
15386;DHT22;7791;47.246;9.648;2022-09-25T12:40:22;18.50;99.90
15386;DHT22;7791;47.246;9.648;2022-09-25T12:42:55;18.20;99.90
15386;DHT22;7791;47.246;9.648;2022-09-25T12:45:28;18.10;99.90
15386;DHT22;7791;47.246;9.648;2022-09-25T12:48:06;18.00;99.90
15386;DHT22;7791;47.246;9.648;2022-09-25T12:50:40;17.50;99.90
15386;DHT22;7791;47.246;9.648;2022-09-25T12:53:20;17.40;99.90
15386;DHT22;7791;47.246;9.648;2022-09-25T12:56:01;17.40;99.90
15386;DHT22;7791;47.246;9.648;2022-09-25T12:58:47;17.40;99.90
15386;DHT22;7791;47.246;9.648;2022-09-25T13:01:19;17.30;99.90
15386;DHT22;7791;47.246;9.648;2022-09-25T13:03:51;17.20;99.90
15386;DHT22;7791;47.246;9.648;2022-09-25T13:06:27;17.10;99.90
15386;DHT22;7791;47.246;9.648;2022-09-25T13:09:05;17.30;99.90
15386;DHT22;7791;47.246;9.648;2022-09-25T13:11:41;17.40;99.90
15386;DHT22;7791;47.246;9.648;2022-09-25T13:14:17;17.20;99.90
15386;DHT22;7791;47.246;9.648;2022-09-25T13:27:13;17.50;99.90
15386;DHT22;7791;47.246;9.648;2022-09-25T13:29:40;17.50;99.90
15386;DHT22;7791;47.246;9.648;2022-09-25T13:32:07;17.30;99.90
15386;DHT22;7791;47.246;9.648;2022-09-25T13:34:38;17.50;99.90
15386;DHT22;7791;47.246;9.648;2022-09-25T13:37:06;17.30;99.90
15386;DHT22;7791;47.246;9.648;2022-09-25T13:39:34;17.00;99.90
15386;DHT22;7791;47.246;9.648;2022-09-25T13:42:04;17.00;99.90
15386;DHT22;7791;47.246;9.648;2022-09-25T13:44:55;16.90;99.90
15386;DHT22;7791;47.246;9.648;2022-09-25T13:50:38;16.70;99.90
15386;DHT22;7791;47.246;9.648;2022-09-25T13:53:51;16.60;99.90
15386;DHT22;7791;47.246;9.648;2022-09-25T13:56:24;16.50;99.90
15386;DHT22;7791;47.246;9.648;2022-09-25T14:04:51;16.50;99.90
15386;DHT22;7791;47.246;9.648;2022-09-25T14:07:20;16.60;99.90
15386;DHT22;7791;47.246;9.648;2022-09-25T14:09:49;16.60;99.90
15386;DHT22;7791;47.246;9.648;2022-09-25T14:12:28;16.50;99.90
15386;DHT22;7791;47.246;9.648;2022-09-25T14:14:59;16.50;99.90
15386;DHT22;7791;47.246;9.648;2022-09-25T14:17:28;16.50;99.90
15386;DHT22;7791;47.246;9.648;2022-09-25T14:19:57;16.20;99.90
15386;DHT22;7791;47.246;9.648;2022-09-25T14:30:40;16.40;99.90
15386;DHT22;7791;47.246;9.648;2022-09-25T14:33:34;16.30;99.90
15386;DHT22;7791;47.246;9.648;2022-09-25T14:36:11;16.10;99.90
15386;DHT22;7791;47.246;9.648;2022-09-25T14:39:11;16.00;99.90
15386;DHT22;7791;47.246;9.648;2022-09-25T14:41:56;15.80;99.90
15386;DHT22;7791;47.246;9.648;2022-09-25T14:52:43;15.30;99.90
15386;DHT22;7791;47.246;9.648;2022-09-25T14:57:48;15.00;99.90
15386;DHT22;7791;47.246;9.648;2022-09-25T15:00:19;15.00;99.90
15386;DHT22;7791;47.246;9.648;2022-09-25T15:02:46;15.10;99.90
15386;DHT22;7791;47.246;9.648;2022-09-25T15:07:51;15.10;99.90
15386;DHT22;7791;47.246;9.648;2022-09-25T15:10:25;15.10;99.90
15386;DHT22;7791;47.246;9.648;2022-09-25T15:12:51;15.10;99.90
15386;DHT22;7791;47.246;9.648;2022-09-25T15:15:17;15.20;99.90
15386;DHT22;7791;47.246;9.648;2022-09-25T15:21:12;15.10;99.90
15386;DHT22;7791;47.246;9.648;2022-09-25T15:23:41;15.10;99.90
15386;DHT22;7791;47.246;9.648;2022-09-25T15:26:13;15.20;99.90
15386;DHT22;7791;47.246;9.648;2022-09-25T15:28:40;15.40;99.90
15386;DHT22;7791;47.246;9.648;2022-09-25T15:31:06;15.30;99.90
15386;DHT22;7791;47.246;9.648;2022-09-25T15:33:34;15.40;99.90
15386;DHT22;7791;47.246;9.648;2022-09-25T15:36:07;15.40;99.90
15386;DHT22;7791;47.246;9.648;2022-09-25T15:38:36;15.40;99.90
15386;DHT22;7791;47.246;9.648;2022-09-25T15:41:06;15.40;99.90
15386;DHT22;7791;47.246;9.648;2022-09-25T15:43:32;15.40;99.90
15386;DHT22;7791;47.246;9.648;2022-09-25T15:46:33;15.30;99.90
15386;DHT22;7791;47.246;9.648;2022-09-25T15:49:32;15.40;99.90
15386;DHT22;7791;47.246;9.648;2022-09-25T15:52:00;15.40;99.90
15386;DHT22;7791;47.246;9.648;2022-09-25T15:54:35;15.10;99.90
15386;DHT22;7791;47.246;9.648;2022-09-25T15:57:04;15.00;99.90
15386;DHT22;7791;47.246;9.648;2022-09-25T15:59:34;15.00;99.90
15386;DHT22;7791;47.246;9.648;2022-09-25T16:02:14;15.20;99.90
15386;DHT22;7791;47.246;9.648;2022-09-25T16:04:47;15.00;99.90
15386;DHT22;7791;47.246;9.648;2022-09-25T16:07:25;14.70;99.90
15386;DHT22;7791;47.246;9.648;2022-09-25T16:09:52;14.70;99.90
15386;DHT22;7791;47.246;9.648;2022-09-25T16:12:21;14.80;99.90
15386;DHT22;7791;47.246;9.648;2022-09-25T16:14:49;14.70;99.90
15386;DHT22;7791;47.246;9.648;2022-09-25T16:17:21;14.70;99.90
15386;DHT22;7791;47.246;9.648;2022-09-25T16:25:54;15.00;99.90
15386;DHT22;7791;47.246;9.648;2022-09-25T16:28:24;14.90;99.90
15386;DHT22;7791;47.246;9.648;2022-09-25T16:30:56;15.00;99.90
15386;DHT22;7791;47.246;9.648;2022-09-25T16:33:54;15.00;99.90
15386;DHT22;7791;47.246;9.648;2022-09-25T16:36:21;15.00;99.90
15386;DHT22;7791;47.246;9.648;2022-09-25T16:39:18;15.00;99.90
15386;DHT22;7791;47.246;9.648;2022-09-25T16:41:46;14.90;99.90
15386;DHT22;7791;47.246;9.648;2022-09-25T16:44:15;14.90;99.90
15386;DHT22;7791;47.246;9.648;2022-09-25T16:46:42;14.80;99.90
15386;DHT22;7791;47.246;9.648;2022-09-25T16:49:10;14.80;99.90
15386;DHT22;7791;47.246;9.648;2022-09-25T16:51:36;14.40;99.90
15386;DHT22;7791;47.246;9.648;2022-09-25T16:54:02;14.30;99.90
15386;DHT22;7791;47.246;9.648;2022-09-25T16:56:29;14.40;99.90
15386;DHT22;7791;47.246;9.648;2022-09-25T16:58:56;14.30;99.90
15386;DHT22;7791;47.246;9.648;2022-09-25T17:01:24;14.20;99.90
15386;DHT22;7791;47.246;9.648;2022-09-25T17:04:13;14.20;99.90
15386;DHT22;7791;47.246;9.648;2022-09-25T17:06:39;14.30;99.90
15386;DHT22;7791;47.246;9.648;2022-09-25T17:09:10;14.20;99.90
15386;DHT22;7791;47.246;9.648;2022-09-25T17:11:37;14.20;99.90
15386;DHT22;7791;47.246;9.648;2022-09-25T17:14:03;14.20;99.90
15386;DHT22;7791;47.246;9.648;2022-09-25T17:16:29;14.20;99.90
15386;DHT22;7791;47.246;9.648;2022-09-25T17:19:00;14.20;99.90
15386;DHT22;7791;47.246;9.648;2022-09-25T17:21:28;14.20;99.90
15386;DHT22;7791;47.246;9.648;2022-09-25T17:23:54;14.10;99.90
15386;DHT22;7791;47.246;9.648;2022-09-25T17:26:21;14.10;99.90
15386;DHT22;7791;47.246;9.648;2022-09-25T17:28:48;14.10;99.90
15386;DHT22;7791;47.246;9.648;2022-09-25T17:31:16;14.00;99.90
15386;DHT22;7791;47.246;9.648;2022-09-25T17:33:45;14.00;99.90
15386;DHT22;7791;47.246;9.648;2022-09-25T17:36:12;14.00;99.90
15386;DHT22;7791;47.246;9.648;2022-09-25T17:38:40;14.00;99.90
15386;DHT22;7791;47.246;9.648;2022-09-25T17:41:13;14.00;99.90
15386;DHT22;7791;47.246;9.648;2022-09-25T17:43:39;13.90;99.90
15386;DHT22;7791;47.246;9.648;2022-09-25T17:46:06;13.80;99.90
15386;DHT22;7791;47.246;9.648;2022-09-25T17:48:33;13.80;99.90
15386;DHT22;7791;47.246;9.648;2022-09-25T17:51:00;13.80;99.90